Time;durP1;ratioP1;P1;durP2;ratioP2;P2;SDS_P1;SDS_P2;PMS_P1;PMS_P2;Temp;Humidity;BMP_temperature;BMP_pressure;BME280_temperature;BME280_humidity;BME280_pressure;Samples;Min_cycle;Max_cycle;Signal;HPM_P1;HPM_P2
2021/10/23 00:02:26;;;;;;;9.63;5.93;;;;;;;;;;10481378;28;20032;-83
2021/10/23 00:07:26;;;;;;;8.73;6.33;;;;;;;;;;10498423;28;20484;-84
2021/10/23 00:12:26;;;;;;;8.10;6.03;;;;;;;;;;10479009;28;21088;-83
2021/10/23 00:17:27;;;;;;;9.63;6.40;;;;;;;;;;10493386;28;20477;-84
2021/10/23 00:22:28;;;;;;;12.17;6.50;;;;;;;;;;10486211;28;20032;-85
2021/10/23 00:27:28;;;;;;;9.80;6.57;;;;;;;;;;10459093;28;20446;-84
2021/10/23 00:32:29;;;;;;;11.63;6.43;;;;;;;;;;10490940;28;20037;-85
2021/10/23 00:37:29;;;;;;;8.98;5.80;;;;;;;;;;10492728;28;20039;-83
2021/10/23 00:42:30;;;;;;;9.80;6.70;;;;;;;;;;10488541;28;20032;-85
2021/10/23 00:47:30;;;;;;;10.13;6.50;;;;;;;;;;10487502;28;20480;-85
2021/10/23 00:52:31;;;;;;;8.43;6.07;;;;;;;;;;10463274;28;20032;-85
2021/10/23 00:57:31;;;;;;;8.63;5.77;;;;;;;;;;10495782;28;20032;-84
2021/10/23 01:02:31;;;;;;;8.40;5.77;;;;;;;;;;10491755;28;20847;-85
2021/10/23 01:07:32;;;;;;;9.60;6.35;;;;;;;;;;10487905;28;20040;-85
2021/10/23 01:12:33;;;;;;;8.60;6.50;;;;;;;;;;10472005;28;22323;-87
2021/10/23 01:17:34;;;;;;;6.43;5.75;;;;;;;;;;10472942;28;20481;-86
2021/10/23 01:22:34;;;;;;;7.82;6.30;;;;;;;;;;10481351;28;20385;-84
2021/10/23 01:27:35;;;;;;;8.17;6.20;;;;;;;;;;10479294;28;20033;-84
2021/10/23 01:32:36;;;;;;;8.82;6.35;;;;;;;;;;10496767;28;20918;-84
2021/10/23 01:37:42;;;;;;;8.30;5.97;;;;;;;;;;10489417;28;20060;-84
2021/10/23 01:42:43;;;;;;;8.13;5.57;;;;;;;;;;10486599;28;20037;-85
2021/10/23 01:47:44;;;;;;;9.82;6.20;;;;;;;;;;10490084;28;20534;-84
2021/10/23 01:52:44;;;;;;;7.23;6.13;;;;;;;;;;10491387;28;20170;-84
2021/10/23 01:57:45;;;;;;;7.72;6.20;;;;;;;;;;10490730;28;20450;-85
2021/10/23 02:02:45;;;;;;;12.98;6.60;;;;;;;;;;10463892;28;20389;-84
2021/10/23 02:07:46;;;;;;;7.20;5.80;;;;;;;;;;10486525;28;20367;-84
2021/10/23 02:12:46;;;;;;;8.32;6.35;;;;;;;;;;10490355;28;20033;-84
2021/10/23 02:17:47;;;;;;;8.65;6.25;;;;;;;;;;10488627;28;20451;-84
2021/10/23 02:22:47;;;;;;;7.18;5.82;;;;;;;;;;10489074;28;20071;-84
2021/10/23 02:27:48;;;;;;;8.35;6.05;;;;;;;;;;10487500;28;20063;-84
2021/10/23 02:32:49;;;;;;;7.53;5.50;;;;;;;;;;10477974;28;20033;-83
2021/10/23 02:37:49;;;;;;;7.72;5.93;;;;;;;;;;10503288;28;20052;-84
2021/10/23 02:42:50;;;;;;;8.52;6.25;;;;;;;;;;10476745;28;20041;-84
2021/10/23 02:47:50;;;;;;;8.07;6.05;;;;;;;;;;10484469;28;20410;-85
2021/10/23 02:52:51;;;;;;;9.30;6.47;;;;;;;;;;10490097;28;20032;-84
2021/10/23 02:57:51;;;;;;;6.67;5.73;;;;;;;;;;10492620;28;20090;-85
2021/10/23 03:02:52;;;;;;;6.53;5.83;;;;;;;;;;10486790;28;20480;-85
2021/10/23 03:07:52;;;;;;;9.18;5.63;;;;;;;;;;10485619;28;20459;-84
2021/10/23 03:12:52;;;;;;;6.83;5.50;;;;;;;;;;10501773;28;20082;-84
2021/10/23 03:17:53;;;;;;;8.82;6.32;;;;;;;;;;10488464;28;20446;-83
2021/10/23 03:22:53;;;;;;;8.48;6.50;;;;;;;;;;10485150;28;20523;-85
2021/10/23 03:27:54;;;;;;;7.60;6.60;;;;;;;;;;10491717;28;20090;-85
2021/10/23 03:32:54;;;;;;;7.95;6.45;;;;;;;;;;10474752;28;20438;-84
2021/10/23 03:37:54;;;;;;;8.20;6.57;;;;;;;;;;10493951;28;20035;-85
2021/10/23 03:42:55;;;;;;;9.27;6.80;;;;;;;;;;10498084;28;20445;-84
2021/10/23 03:47:55;;;;;;;8.50;5.82;;;;;;;;;;10484552;28;20446;-85
2021/10/23 03:52:56;;;;;;;8.70;5.70;;;;;;;;;;10500011;28;20036;-85
2021/10/23 03:57:56;;;;;;;7.55;5.90;;;;;;;;;;10487586;28;20489;-84
2021/10/23 04:02:57;;;;;;;11.67;6.57;;;;;;;;;;10481914;28;20040;-84
2021/10/23 04:07:57;;;;;;;8.63;6.55;;;;;;;;;;10480721;28;20799;-84
2021/10/23 04:12:58;;;;;;;7.27;6.37;;;;;;;;;;10489580;28;20028;-85
2021/10/23 04:17:58;;;;;;;7.82;6.43;;;;;;;;;;10476531;28;20449;-83
2021/10/23 04:22:59;;;;;;;7.35;6.55;;;;;;;;;;10466992;28;20028;-85
2021/10/23 04:27:59;;;;;;;7.57;6.20;;;;;;;;;;10499496;28;20420;-85
2021/10/23 04:32:59;;;;;;;8.73;6.03;;;;;;;;;;10487586;28;20225;-85
2021/10/23 04:38:00;;;;;;;7.27;5.80;;;;;;;;;;10494358;28;20021;-84
2021/10/23 04:43:00;;;;;;;7.47;5.73;;;;;;;;;;10477371;28;20461;-85
2021/10/23 04:48:01;;;;;;;6.80;5.73;;;;;;;;;;10475747;28;20545;-85
2021/10/23 04:53:01;;;;;;;7.80;5.90;;;;;;;;;;10484140;28;20399;-84
2021/10/23 04:58:02;;;;;;;8.43;6.07;;;;;;;;;;10460074;28;20029;-83
2021/10/23 05:03:02;;;;;;;6.78;5.78;;;;;;;;;;10480678;28;20394;-84
2021/10/23 05:08:03;;;;;;;8.70;6.47;;;;;;;;;;10486043;28;20035;-84
2021/10/23 05:13:03;;;;;;;7.03;5.97;;;;;;;;;;10480859;28;20032;-85
2021/10/23 05:18:03;;;;;;;8.43;6.10;;;;;;;;;;10472875;28;20481;-85
2021/10/23 05:23:04;;;;;;;6.03;5.40;;;;;;;;;;10466608;28;20029;-86
2021/10/23 05:28:04;;;;;;;6.47;5.70;;;;;;;;;;10473557;28;20434;-86
2021/10/23 05:33:05;;;;;;;7.70;6.10;;;;;;;;;;10495453;28;20036;-85
2021/10/23 05:38:05;;;;;;;7.55;5.68;;;;;;;;;;10479383;28;20847;-85
2021/10/23 05:43:06;;;;;;;7.67;5.63;;;;;;;;;;10489066;28;20375;-85
2021/10/23 05:48:06;;;;;;;9.03;5.70;;;;;;;;;;10474497;28;20410;-82
2021/10/23 05:53:06;;;;;;;6.10;5.40;;;;;;;;;;10475407;28;20048;-83
2021/10/23 05:58:08;;;;;;;7.80;5.30;;;;;;;;;;10494149;28;20430;-83
2021/10/23 06:03:18;;;;;;;6.60;5.50;;;;;;;;;;10467593;28;20035;-81
2021/10/23 06:08:18;;;;;;;10.40;5.68;;;;;;;;;;10484957;28;20035;-82
2021/10/23 06:13:21;;;;;;;5.72;5.00;;;;;;;;;;10477531;28;20033;-82
2021/10/23 06:18:21;;;;;;;7.55;5.85;;;;;;;;;;10481203;28;20075;-82
2021/10/23 06:23:22;;;;;;;7.95;5.43;;;;;;;;;;10484574;28;20029;-82
2021/10/23 06:28:22;;;;;;;5.65;5.15;;;;;;;;;;10492040;28;20025;-79
2021/10/23 06:33:22;;;;;;;9.10;6.20;;;;;;;;;;10488898;28;20036;-82
2021/10/23 06:38:23;;;;;;;15.98;8.00;;;;;;;;;;10491007;28;20470;-82
2021/10/23 06:43:25;;;;;;;15.35;7.93;;;;;;;;;;10495615;28;20044;-82
2021/10/23 06:48:25;;;;;;;8.65;7.45;;;;;;;;;;10498044;28;20024;-81
2021/10/23 06:53:26;;;;;;;9.50;7.60;;;;;;;;;;10488540;28;20398;-82
2021/10/23 06:58:26;;;;;;;10.90;7.55;;;;;;;;;;10499232;28;20446;-84
2021/10/23 07:03:26;;;;;;;13.27;7.27;;;;;;;;;;10484768;28;20048;-90
2021/10/23 07:08:27;;;;;;;14.23;6.93;;;;;;;;;;10498338;28;20441;-86
2021/10/23 07:13:27;;;;;;;23.87;7.80;;;;;;;;;;10501728;28;20043;-88
2021/10/23 07:18:27;;;;;;;19.73;7.53;;;;;;;;;;10494832;28;20120;-88
2021/10/23 07:23:28;;;;;;;39.80;8.95;;;;;;;;;;10495207;28;20090;-86
2021/10/23 07:28:28;;;;;;;36.05;7.95;;;;;;;;;;10487611;28;20024;-87
2021/10/23 07:33:29;;;;;;;31.02;8.50;;;;;;;;;;10502398;28;20029;-88
2021/10/23 07:38:29;;;;;;;20.45;7.63;;;;;;;;;;10504672;28;20112;-86
2021/10/23 07:43:30;;;;;;;20.17;7.80;;;;;;;;;;10509572;22;20065;-86
2021/10/23 07:48:32;;;;;;;21.88;7.93;;;;;;;;;;10396716;28;20033;-89
2021/10/23 07:53:34;;;;;;;21.60;7.07;;;;;;;;;;10393349;28;20034;-88
2021/10/23 07:58:34;;;;;;;21.42;7.35;;;;;;;;;;10400233;28;20042;-91
2021/10/23 08:03:35;;;;;;;22.55;7.35;;;;;;;;;;10392087;28;20037;-86
2021/10/23 08:08:35;;;;;;;13.00;6.80;;;;;;;;;;10407174;28;20029;-89
2021/10/23 08:13:36;;;;;;;16.27;6.47;;;;;;;;;;10387568;28;20555;-91
2021/10/23 08:18:36;;;;;;;14.57;7.15;;;;;;;;;;10412414;28;20527;-89
2021/10/23 08:23:37;;;;;;;14.00;6.73;;;;;;;;;;10413126;28;20033;-87
2021/10/23 08:28:37;;;;;;;16.63;6.37;;;;;;;;;;10391804;28;20447;-89
2021/10/23 08:33:38;;;;;;;13.68;6.85;;;;;;;;;;10406546;28;20030;-89
2021/10/23 08:38:38;;;;;;;29.42;6.47;;;;;;;;;;10393998;28;20186;-89
2021/10/23 08:43:43;;;;;;;19.20;6.68;;;;;;;;;;10382400;28;20077;-91
2021/10/23 08:48:44;;;;;;;9.55;6.00;;;;;;;;;;10397401;28;20152;-90
2021/10/23 08:53:45;;;;;;;25.38;6.32;;;;;;;;;;10397006;28;20532;-89
2021/10/23 08:58:45;;;;;;;15.63;6.70;;;;;;;;;;10393820;28;20146;-90
2021/10/23 09:03:47;;;;;;;12.40;6.43;;;;;;;;;;10390527;28;20030;-91
2021/10/23 09:08:58;;;;;;;21.25;6.40;;;;;;;;;;10386154;28;20029;-89
2021/10/23 09:14:38;;;;;;;14.48;6.10;;;;;;;;;;10406203;28;20116;-88
2021/10/23 09:19:42;;;;;;;12.98;5.65;;;;;;;;;;10406243;28;20038;-87
2021/10/23 09:24:42;;;;;;;25.63;6.43;;;;;;;;;;10385590;28;20476;-87
2021/10/23 09:29:42;;;;;;;17.03;6.23;;;;;;;;;;10416313;28;20032;-85
2021/10/23 09:34:43;;;;;;;13.33;6.40;;;;;;;;;;10410267;28;20442;-85
2021/10/23 09:39:44;;;;;;;13.80;7.07;;;;;;;;;;10397902;28;20474;-86
2021/10/23 09:45:05;;;;;;;18.08;6.22;;;;;;;;;;10424172;28;20498;-85
2021/10/23 09:50:09;;;;;;;14.18;5.90;;;;;;;;;;10425808;28;20349;-86
2021/10/23 09:55:10;;;;;;;14.65;5.70;;;;;;;;;;10423939;28;20056;-85
2021/10/23 10:00:11;;;;;;;15.85;6.28;;;;;;;;;;10390875;28;20117;-85
2021/10/23 10:05:11;;;;;;;9.88;5.40;;;;;;;;;;10417820;28;20025;-87
2021/10/23 10:10:12;;;;;;;8.85;5.50;;;;;;;;;;10424243;28;20086;-86
2021/10/23 10:15:13;;;;;;;8.43;4.90;;;;;;;;;;10407610;28;20065;-89
2021/10/23 10:20:14;;;;;;;9.38;4.38;;;;;;;;;;10397291;28;20060;-90
2021/10/23 10:25:20;;;;;;;8.45;4.85;;;;;;;;;;10387135;28;20419;-89
2021/10/23 10:30:26;;;;;;;12.88;5.13;;;;;;;;;;10380024;28;20029;-89
2021/10/23 10:45:46;;;;;;;6.93;4.30;;;;;;;;;;10411744;28;20060;-87
2021/10/23 10:50:48;;;;;;;12.77;4.57;;;;;;;;;;10420172;28;20496;-89
2021/10/23 10:55:55;;;;;;;7.78;4.28;;;;;;;;;;10404353;28;20044;-87
2021/10/23 11:01:01;;;;;;;11.80;4.22;;;;;;;;;;10405314;28;20041;-91
2021/10/23 11:06:28;;;;;;;13.82;4.80;;;;;;;;;;10417048;28;20112;-89
2021/10/23 11:11:28;;;;;;;5.97;4.60;;;;;;;;;;10349327;28;20125;-90
2021/10/23 11:16:29;;;;;;;9.47;4.33;;;;;;;;;;10392045;28;20183;-90
2021/10/23 11:21:31;;;;;;;9.25;4.53;;;;;;;;;;10401562;28;20461;-91
2021/10/23 11:26:32;;;;;;;10.77;4.57;;;;;;;;;;10381549;28;20029;-90
2021/10/23 11:31:32;;;;;;;11.23;4.55;;;;;;;;;;10404354;28;20038;-83
2021/10/23 11:36:33;;;;;;;9.83;4.80;;;;;;;;;;10399330;28;20116;-85
2021/10/23 11:41:33;;;;;;;6.78;4.28;;;;;;;;;;10398685;28;20025;-85
2021/10/23 11:46:35;;;;;;;5.13;4.13;;;;;;;;;;10413524;28;20456;-87
2021/10/23 11:51:36;;;;;;;10.65;4.68;;;;;;;;;;10396689;28;20545;-88
2021/10/23 11:56:47;;;;;;;16.88;4.45;;;;;;;;;;10401238;28;20124;-88
2021/10/23 12:01:49;;;;;;;8.32;4.38;;;;;;;;;;10396154;28;20420;-88
2021/10/23 12:06:49;;;;;;;6.65;4.20;;;;;;;;;;10404445;28;20025;-88
2021/10/23 12:12:08;;;;;;;7.93;3.97;;;;;;;;;;10408577;28;20030;-88
2021/10/23 12:17:08;;;;;;;9.02;4.55;;;;;;;;;;10393603;28;20456;-90
2021/10/23 12:22:13;;;;;;;9.50;4.10;;;;;;;;;;10389779;28;20099;-91
2021/10/23 12:27:28;;;;;;;13.75;4.68;;;;;;;;;;10365463;28;20052;-90
2021/10/23 12:32:37;;;;;;;12.93;4.20;;;;;;;;;;10370637;28;20045;-91
2021/10/23 12:37:47;;;;;;;10.05;4.00;;;;;;;;;;10384979;28;20033;-93
2021/10/23 12:42:55;;;;;;;11.18;3.90;;;;;;;;;;10377074;28;20079;-96
2021/10/23 12:48:01;;;;;;;10.05;3.50;;;;;;;;;;10389831;28;20041;-92
2021/10/23 12:53:02;;;;;;;10.82;3.70;;;;;;;;;;10396932;28;20502;-89
2021/10/23 12:58:03;;;;;;;7.70;3.90;;;;;;;;;;10380686;28;20056;-92
2021/10/23 13:03:04;;;;;;;9.10;4.05;;;;;;;;;;10397900;28;20074;-95
2021/10/23 13:08:04;;;;;;;9.37;3.90;;;;;;;;;;10380989;28;20459;-92
2021/10/23 13:13:05;;;;;;;6.80;3.70;;;;;;;;;;10400357;28;20034;-93
2021/10/23 13:18:05;;;;;;;5.32;3.85;;;;;;;;;;10400283;28;20048;-91
2021/10/23 13:23:08;;;;;;;10.47;3.77;;;;;;;;;;10376110;28;20178;-86
2021/10/23 13:28:08;;;;;;;6.93;4.18;;;;;;;;;;10426636;28;20091;-87
2021/10/23 13:33:10;;;;;;;7.28;3.90;;;;;;;;;;10344858;28;20053;-86
2021/10/23 13:38:10;;;;;;;7.20;3.83;;;;;;;;;;10401281;28;20037;-87
2021/10/23 13:43:11;;;;;;;9.37;3.93;;;;;;;;;;10386177;28;20062;-86
2021/10/23 13:48:11;;;;;;;10.60;3.50;;;;;;;;;;10407136;28;20501;-89
2021/10/23 13:53:11;;;;;;;6.23;3.47;;;;;;;;;;10424631;28;20976;-87
2021/10/23 13:58:12;;;;;;;6.45;3.30;;;;;;;;;;10406665;28;20472;-88
2021/10/23 14:03:13;;;;;;;7.30;3.60;;;;;;;;;;10392410;28;20487;-88
2021/10/23 14:08:17;;;;;;;7.13;3.20;;;;;;;;;;10395565;28;20447;-89
2021/10/23 14:13:18;;;;;;;9.88;4.07;;;;;;;;;;10389344;28;20033;-88
2021/10/23 14:18:19;;;;;;;4.82;3.15;;;;;;;;;;10424105;28;20040;-89
2021/10/23 14:23:20;;;;;;;6.70;2.97;;;;;;;;;;10412027;28;20033;-89
2021/10/23 14:28:39;;;;;;;5.82;3.20;;;;;;;;;;10390539;28;20045;-89
2021/10/23 14:33:40;;;;;;;;;;;;;;;;;;10393583;28;20034;-93
2021/10/23 14:38:41;;;;;;;5.97;3.67;;;;;;;;;;10402451;28;20363;-94
2021/10/23 14:43:41;;;;;;;8.85;3.40;;;;;;;;;;10422757;28;20393;-90
2021/10/23 14:48:42;;;;;;;4.82;3.25;;;;;;;;;;10404020;28;20040;-89
2021/10/23 14:53:43;;;;;;;6.32;3.33;;;;;;;;;;10422344;28;20099;-90
2021/10/23 14:58:44;;;;;;;5.95;2.75;;;;;;;;;;10405509;28;20519;-89
2021/10/23 15:03:44;;;;;;;9.63;3.33;;;;;;;;;;10405761;28;20125;-90
2021/10/23 15:08:45;;;;;;;5.93;2.88;;;;;;;;;;10405570;28;20052;-90
2021/10/23 15:13:45;;;;;;;4.85;2.92;;;;;;;;;;10404695;28;20482;-89
2021/10/23 15:18:46;;;;;;;3.17;2.50;;;;;;;;;;10392121;28;20139;-89
2021/10/23 15:23:48;;;;;;;3.87;2.97;;;;;;;;;;10374502;28;20077;-89
2021/10/23 15:28:50;;;;;;;4.65;3.00;;;;;;;;;;10403569;28;20044;-88
2021/10/23 15:33:51;;;;;;;6.80;2.90;;;;;;;;;;10391080;28;20060;-91
2021/10/23 15:38:53;;;;;;;4.97;2.60;;;;;;;;;;10403987;28;20091;-89
2021/10/23 15:44:01;;;;;;;4.93;2.90;;;;;;;;;;10400744;28;20432;-92
2021/10/23 15:49:03;;;;;;;7.28;2.70;;;;;;;;;;10402035;28;20498;-89
2021/10/23 15:54:04;;;;;;;3.85;2.90;;;;;;;;;;10402242;28;20056;-91
2021/10/23 15:59:04;;;;;;;4.55;3.25;;;;;;;;;;10403006;28;20472;-92
2021/10/23 16:04:05;;;;;;;4.85;2.45;;;;;;;;;;10375481;28;20030;-91
2021/10/23 16:09:05;;;;;;;5.97;2.72;;;;;;;;;;10382206;28;20026;-90
2021/10/23 16:14:06;;;;;;;4.07;2.70;;;;;;;;;;10382974;28;20116;-93
2021/10/23 16:19:06;;;;;;;6.47;2.92;;;;;;;;;;10399045;28;20040;-88
2021/10/23 16:24:06;;;;;;;4.20;2.70;;;;;;;;;;10419808;28;20463;-89
2021/10/23 16:29:07;;;;;;;7.00;2.90;;;;;;;;;;10378406;28;20532;-88
2021/10/23 16:34:07;;;;;;;4.90;2.85;;;;;;;;;;10384125;28;20017;-81
2021/10/23 16:39:08;;;;;;;5.40;2.90;;;;;;;;;;10399090;28;20495;-84
2021/10/23 16:44:09;;;;;;;3.63;2.65;;;;;;;;;;10415193;28;20516;-87
2021/10/23 16:49:09;;;;;;;7.65;2.70;;;;;;;;;;10389623;28;20463;-86
2021/10/23 16:54:11;;;;;;;6.40;2.90;;;;;;;;;;10406621;28;20036;-84
2021/10/23 16:59:11;;;;;;;6.28;3.03;;;;;;;;;;10405587;28;20030;-85
2021/10/23 17:04:11;;;;;;;7.33;2.77;;;;;;;;;;10383460;28;20108;-85
2021/10/23 17:09:12;;;;;;;8.77;3.17;;;;;;;;;;10396012;28;20497;-86
2021/10/23 17:14:13;;;;;;;16.95;3.70;;;;;;;;;;10393436;28;20025;-85
2021/10/23 17:19:15;;;;;;;14.65;3.25;;;;;;;;;;10391107;28;20454;-88
2021/10/23 17:24:16;;;;;;;9.88;3.40;;;;;;;;;;10411779;28;20361;-86
2021/10/23 17:29:16;;;;;;;15.27;4.05;;;;;;;;;;10397488;28;20365;-89
2021/10/23 17:34:17;;;;;;;12.47;2.90;;;;;;;;;;10391245;28;20041;-91
2021/10/23 17:39:17;;;;;;;8.83;3.13;;;;;;;;;;10361617;28;20489;-90
2021/10/23 17:44:19;;;;;;;22.15;3.85;;;;;;;;;;10368987;28;20468;-85
2021/10/23 17:49:19;;;;;;;9.60;3.72;;;;;;;;;;10407903;28;20037;-87
2021/10/23 17:54:20;;;;;;;13.60;3.50;;;;;;;;;;10417774;28;20039;-95
2021/10/23 17:59:20;;;;;;;8.80;3.63;;;;;;;;;;10375584;28;20470;-87
2021/10/23 18:04:20;;;;;;;7.43;3.50;;;;;;;;;;10402435;28;20091;-93
2021/10/23 18:09:21;;;;;;;17.13;3.83;;;;;;;;;;10366248;28;20506;-91
2021/10/23 18:14:22;;;;;;;18.27;3.90;;;;;;;;;;10400364;28;20091;-90
2021/10/23 18:19:24;;;;;;;12.57;3.78;;;;;;;;;;10381459;28;20540;-91
2021/10/23 18:24:29;;;;;;;17.23;4.30;;;;;;;;;;10393579;28;20028;-90
2021/10/23 18:29:29;;;;;;;11.70;3.83;;;;;;;;;;10401742;28;20451;-90
2021/10/23 18:34:30;;;;;;;18.10;4.23;;;;;;;;;;10384791;28;20060;-91
2021/10/23 18:39:31;;;;;;;11.98;3.42;;;;;;;;;;10371143;28;20462;-90
2021/10/23 18:44:34;;;;;;;13.73;4.00;;;;;;;;;;10385375;28;20062;-88
2021/10/23 18:49:35;;;;;;;19.83;4.13;;;;;;;;;;10380147;28;20079;-88
2021/10/23 18:54:35;;;;;;;9.18;4.00;;;;;;;;;;10417350;28;20033;-87
2021/10/23 18:59:37;;;;;;;17.50;3.57;;;;;;;;;;10387265;28;20044;-88
2021/10/23 19:04:38;;;;;;;12.05;4.20;;;;;;;;;;10367760;28;20471;-90
2021/10/23 19:09:43;;;;;;;13.95;4.00;;;;;;;;;;10369362;28;20030;-89
2021/10/23 19:14:44;;;;;;;10.30;3.00;;;;;;;;;;10410842;28;20037;-88
2021/10/23 19:19:45;;;;;;;12.15;3.97;;;;;;;;;;10385882;28;20049;-90
2021/10/23 19:24:49;;;;;;;5.85;3.28;;;;;;;;;;10416381;28;20391;-89
2021/10/23 19:29:50;;;;;;;9.75;3.00;;;;;;;;;;10399616;28;20490;-89
2021/10/23 19:34:51;;;;;;;6.97;3.40;;;;;;;;;;10398855;28;20037;-88
2021/10/23 19:39:51;;;;;;;10.55;3.05;;;;;;;;;;10390875;28;20033;-90
2021/10/23 19:44:52;;;;;;;6.63;3.37;;;;;;;;;;10427016;22;20054;-82
2021/10/23 19:49:52;;;;;;;11.17;3.07;;;;;;;;;;10374471;28;20491;-83
2021/10/23 19:54:52;;;;;;;11.40;3.13;;;;;;;;;;10373212;28;20034;-82
2021/10/23 19:59:53;;;;;;;7.33;3.37;;;;;;;;;;10375145;28;20061;-82
2021/10/23 20:04:53;;;;;;;6.77;3.23;;;;;;;;;;10376438;28;20026;-83
2021/10/23 20:09:53;;;;;;;7.20;2.60;;;;;;;;;;10375928;28;20797;-82
2021/10/23 20:14:54;;;;;;;5.67;3.00;;;;;;;;;;10381814;28;20113;-82
2021/10/23 20:19:54;;;;;;;11.17;3.43;;;;;;;;;;10377468;28;20460;-82
2021/10/23 20:24:55;;;;;;;7.97;2.97;;;;;;;;;;10374114;28;20460;-82
2021/10/23 20:29:55;;;;;;;7.80;3.22;;;;;;;;;;10373627;28;20467;-82
2021/10/23 20:34:56;;;;;;;7.57;2.80;;;;;;;;;;10374673;28;20037;-82
2021/10/23 20:39:56;;;;;;;7.70;2.45;;;;;;;;;;10373523;28;20504;-83
2021/10/23 20:44:57;;;;;;;6.07;2.88;;;;;;;;;;10374191;28;20049;-81
2021/10/23 20:49:58;;;;;;;4.03;2.70;;;;;;;;;;10382405;28;20050;-83
2021/10/23 20:54:59;;;;;;;4.68;2.85;;;;;;;;;;10371348;28;20120;-83
2021/10/23 20:59:59;;;;;;;10.17;3.00;;;;;;;;;;10374357;28;20080;-84
2021/10/23 21:04:59;;;;;;;2.57;2.33;;;;;;;;;;10375657;28;20510;-83
2021/10/23 21:10:01;;;;;;;5.07;3.00;;;;;;;;;;10375035;28;20479;-83
2021/10/23 21:15:01;;;;;;;6.30;3.03;;;;;;;;;;10374933;28;20038;-83
2021/10/23 21:20:03;;;;;;;4.85;3.10;;;;;;;;;;10372256;28;20030;-83
2021/10/23 21:25:05;;;;;;;9.10;2.90;;;;;;;;;;10357334;28;20081;-82
2021/10/23 21:30:06;;;;;;;4.53;2.83;;;;;;;;;;10374258;28;20034;-82
2021/10/23 21:35:07;;;;;;;6.03;2.85;;;;;;;;;;10379589;28;20106;-83
2021/10/23 21:40:07;;;;;;;2.95;2.40;;;;;;;;;;10382715;28;20129;-83
2021/10/23 21:45:08;;;;;;;8.07;2.72;;;;;;;;;;10382566;28;20054;-84
2021/10/23 21:50:09;;;;;;;4.50;2.75;;;;;;;;;;10382023;28;20042;-83
2021/10/23 21:55:09;;;;;;;6.57;2.67;;;;;;;;;;10382112;28;20034;-82
2021/10/23 22:00:34;;;;;;;9.60;2.50;;;;;;;;;;10381694;28;20039;-82
2021/10/23 22:05:34;;;;;;;7.65;2.50;;;;;;;;;;10381871;28;20479;-81
2021/10/23 22:10:35;;;;;;;10.23;2.80;;;;;;;;;;10380520;28;20034;-88
2021/10/23 22:15:35;;;;;;;3.80;1.90;;;;;;;;;;10383264;28;20060;-84
2021/10/23 22:20:36;;;;;;;9.30;2.40;;;;;;;;;;10380739;28;20042;-83
2021/10/23 22:25:36;;;;;;;4.93;2.47;;;;;;;;;;10363405;28;20470;-84
2021/10/23 22:30:37;;;;;;;5.30;2.70;;;;;;;;;;10394926;28;20591;-84
2021/10/23 22:35:38;;;;;;;6.93;2.67;;;;;;;;;;10381619;28;20353;-83
2021/10/23 22:40:39;;;;;;;3.13;2.10;;;;;;;;;;10381057;28;20038;-84
2021/10/23 22:45:40;;;;;;;5.07;2.40;;;;;;;;;;10378066;28;20100;-84
2021/10/23 22:50:41;;;;;;;7.20;2.20;;;;;;;;;;10348893;28;20463;-84
2021/10/23 22:55:41;;;;;;;4.68;2.30;;;;;;;;;;10380915;28;20026;-84
2021/10/23 23:00:42;;;;;;;4.07;2.35;;;;;;;;;;10380483;28;20045;-84
2021/10/23 23:05:42;;;;;;;6.50;2.55;;;;;;;;;;10380745;28;20117;-84
2021/10/23 23:10:42;;;;;;;5.80;2.47;;;;;;;;;;10379831;28;20041;-84
2021/10/23 23:15:43;;;;;;;7.70;2.63;;;;;;;;;;10375629;28;20539;-84
2021/10/23 23:20:43;;;;;;;7.32;2.67;;;;;;;;;;10362095;28;20480;-84
2021/10/23 23:25:45;;;;;;;7.93;2.63;;;;;;;;;;10386994;28;20045;-84
2021/10/23 23:30:45;;;;;;;7.05;2.80;;;;;;;;;;10377162;28;20464;-83
2021/10/23 23:35:46;;;;;;;3.83;2.25;;;;;;;;;;10371943;28;20045;-83
2021/10/23 23:40:46;;;;;;;6.80;2.92;;;;;;;;;;10377899;28;20037;-84
2021/10/23 23:45:47;;;;;;;3.58;2.20;;;;;;;;;;10391033;28;20038;-83
2021/10/23 23:50:47;;;;;;;4.73;2.23;;;;;;;;;;10395906;28;20384;-84
2021/10/23 23:55:47;;;;;;;5.77;2.63;;;;;;;;;;10383108;28;20451;-83
